Stonington, Colorado
Current Conditions -  °F | °C
As of 8:53 AM on Saturday 22 Nov 2014 (Local Time) from KGUY Reporting Station
Clear Clear  
Wind Chill: 51°   Ceiling: Unl
Heat Index: 51°   Visibility: 10mi
Dew Point: 29°   Wind: 8mph
Humidity: 43%   Direction: 230°SW
Pressure: 29.88"   Gusts: NA
Location:  37.2687°N, 102.211°W
Report Text: KGUY 221553Z AUTO 23007KT 10SM CLR 11/M02 A2988 RMK AO2 SLP105 T01061017
Loading
Personal Weather Stations






























Interactive Weather Map New forecast layout! Learn more

10-Day Weather Forecast

Advertisements
Track Severe Weather on mobile